sensor_id;sensor_type;location;lat;lon;timestamp;P1;durP1;ratioP1;P2;durP2;ratioP2
73296;SDS011;61524;50.938;11.396;2022-10-19T00:00:14;22.92;;;5.70;;
73296;SDS011;61524;50.938;11.396;2022-10-19T00:02:39;23.70;;;5.75;;
73296;SDS011;61524;50.938;11.396;2022-10-19T00:05:05;37.22;;;7.90;;
73296;SDS011;61524;50.938;11.396;2022-10-19T00:07:32;24.85;;;6.53;;
73296;SDS011;61524;50.938;11.396;2022-10-19T00:09:57;31.60;;;6.43;;
73296;SDS011;61524;50.938;11.396;2022-10-19T00:12:23;23.77;;;5.72;;
73296;SDS011;61524;50.938;11.396;2022-10-19T00:14:48;23.15;;;7.20;;
73296;SDS011;61524;50.938;11.396;2022-10-19T00:17:14;17.58;;;6.28;;
73296;SDS011;61524;50.938;11.396;2022-10-19T00:19:39;29.15;;;6.93;;
73296;SDS011;61524;50.938;11.396;2022-10-19T00:22:05;46.03;;;7.35;;
73296;SDS011;61524;50.938;11.396;2022-10-19T00:24:30;31.35;;;6.75;;
73296;SDS011;61524;50.938;11.396;2022-10-19T00:26:56;29.42;;;6.63;;
73296;SDS011;61524;50.938;11.396;2022-10-19T00:29:21;53.22;;;8.40;;
73296;SDS011;61524;50.938;11.396;2022-10-19T00:31:48;28.55;;;6.35;;
73296;SDS011;61524;50.938;11.396;2022-10-19T00:34:14;33.20;;;6.20;;
73296;SDS011;61524;50.938;11.396;2022-10-19T00:36:40;24.13;;;5.93;;
73296;SDS011;61524;50.938;11.396;2022-10-19T00:39:07;16.05;;;5.68;;
73296;SDS011;61524;50.938;11.396;2022-10-19T00:41:35;21.77;;;6.45;;
73296;SDS011;61524;50.938;11.396;2022-10-19T00:46:36;34.58;;;7.22;;
73296;SDS011;61524;50.938;11.396;2022-10-19T00:51:35;14.48;;;5.85;;
73296;SDS011;61524;50.938;11.396;2022-10-19T00:54:04;35.53;;;6.43;;
73296;SDS011;61524;50.938;11.396;2022-10-19T00:56:31;32.08;;;7.47;;
73296;SDS011;61524;50.938;11.396;2022-10-19T01:01:23;24.30;;;5.93;;
73296;SDS011;61524;50.938;11.396;2022-10-19T01:03:51;29.83;;;6.45;;
73296;SDS011;61524;50.938;11.396;2022-10-19T01:06:16;34.35;;;6.43;;
73296;SDS011;61524;50.938;11.396;2022-10-19T01:08:42;25.80;;;6.95;;
73296;SDS011;61524;50.938;11.396;2022-10-19T01:19:26;47.10;;;7.47;;
73296;SDS011;61524;50.938;11.396;2022-10-19T01:22:00;27.33;;;7.93;;
73296;SDS011;61524;50.938;11.396;2022-10-19T01:30:45;40.97;;;7.28;;
73296;SDS011;61524;50.938;11.396;2022-10-19T01:35:34;39.22;;;7.63;;
73296;SDS011;61524;50.938;11.396;2022-10-19T01:38:13;25.38;;;7.20;;
73296;SDS011;61524;50.938;11.396;2022-10-19T01:40:57;34.50;;;7.95;;
73296;SDS011;61524;50.938;11.396;2022-10-19T01:48:59;33.78;;;6.55;;
73296;SDS011;61524;50.938;11.396;2022-10-19T01:51:29;22.88;;;6.35;;
73296;SDS011;61524;50.938;11.396;2022-10-19T01:54:00;13.18;;;6.03;;
73296;SDS011;61524;50.938;11.396;2022-10-19T01:56:29;15.70;;;6.63;;
73296;SDS011;61524;50.938;11.396;2022-10-19T01:58:57;20.20;;;6.00;;
73296;SDS011;61524;50.938;11.396;2022-10-19T02:01:26;36.05;;;7.75;;
73296;SDS011;61524;50.938;11.396;2022-10-19T02:03:55;16.33;;;6.78;;
73296;SDS011;61524;50.938;11.396;2022-10-19T02:08:49;22.45;;;6.38;;
73296;SDS011;61524;50.938;11.396;2022-10-19T02:11:16;35.47;;;7.53;;
73296;SDS011;61524;50.938;11.396;2022-10-19T02:13:44;37.92;;;8.13;;
73296;SDS011;61524;50.938;11.396;2022-10-19T02:16:17;33.90;;;6.60;;
73296;SDS011;61524;50.938;11.396;2022-10-19T02:18:48;80.38;;;9.32;;
73296;SDS011;61524;50.938;11.396;2022-10-19T02:21:15;34.75;;;7.13;;
73296;SDS011;61524;50.938;11.396;2022-10-19T02:23:42;37.83;;;6.43;;
73296;SDS011;61524;50.938;11.396;2022-10-19T02:26:07;59.97;;;7.72;;
73296;SDS011;61524;50.938;11.396;2022-10-19T02:28:33;81.43;;;9.25;;
73296;SDS011;61524;50.938;11.396;2022-10-19T02:30:59;39.20;;;7.22;;
73296;SDS011;61524;50.938;11.396;2022-10-19T02:33:26;51.67;;;8.48;;
73296;SDS011;61524;50.938;11.396;2022-10-19T02:35:52;89.47;;;9.30;;
73296;SDS011;61524;50.938;11.396;2022-10-19T02:38:19;62.97;;;8.45;;
73296;SDS011;61524;50.938;11.396;2022-10-19T02:43:49;36.15;;;6.03;;
73296;SDS011;61524;50.938;11.396;2022-10-19T02:46:27;56.80;;;8.43;;
73296;SDS011;61524;50.938;11.396;2022-10-19T02:49:14;60.08;;;8.13;;
73296;SDS011;61524;50.938;11.396;2022-10-19T02:51:54;65.50;;;9.32;;
73296;SDS011;61524;50.938;11.396;2022-10-19T02:54:23;63.95;;;8.00;;
73296;SDS011;61524;50.938;11.396;2022-10-19T02:56:49;70.80;;;7.70;;
73296;SDS011;61524;50.938;11.396;2022-10-19T02:59:14;67.57;;;8.05;;
73296;SDS011;61524;50.938;11.396;2022-10-19T03:01:39;58.83;;;8.05;;
73296;SDS011;61524;50.938;11.396;2022-10-19T03:04:05;90.00;;;9.85;;
73296;SDS011;61524;50.938;11.396;2022-10-19T03:06:30;90.05;;;7.70;;
73296;SDS011;61524;50.938;11.396;2022-10-19T03:08:56;77.38;;;8.20;;
73296;SDS011;61524;50.938;11.396;2022-10-19T03:11:21;76.30;;;8.55;;
73296;SDS011;61524;50.938;11.396;2022-10-19T03:13:47;71.25;;;8.10;;
73296;SDS011;61524;50.938;11.396;2022-10-19T03:16:12;73.88;;;8.57;;
73296;SDS011;61524;50.938;11.396;2022-10-19T03:18:38;71.55;;;8.70;;
73296;SDS011;61524;50.938;11.396;2022-10-19T03:21:08;71.35;;;8.57;;
73296;SDS011;61524;50.938;11.396;2022-10-19T03:23:35;63.92;;;8.30;;
73296;SDS011;61524;50.938;11.396;2022-10-19T03:26:02;35.20;;;5.40;;
73296;SDS011;61524;50.938;11.396;2022-10-19T03:28:28;23.42;;;5.88;;
73296;SDS011;61524;50.938;11.396;2022-10-19T03:30:54;20.55;;;5.45;;
73296;SDS011;61524;50.938;11.396;2022-10-19T03:33:20;32.85;;;5.85;;
73296;SDS011;61524;50.938;11.396;2022-10-19T03:35:46;20.90;;;5.65;;
73296;SDS011;61524;50.938;11.396;2022-10-19T03:38:11;72.30;;;7.88;;
73296;SDS011;61524;50.938;11.396;2022-10-19T03:40:37;60.92;;;8.48;;
73296;SDS011;61524;50.938;11.396;2022-10-19T03:43:03;40.13;;;6.90;;
73296;SDS011;61524;50.938;11.396;2022-10-19T03:45:29;35.28;;;6.18;;
73296;SDS011;61524;50.938;11.396;2022-10-19T03:47:54;42.05;;;7.18;;
73296;SDS011;61524;50.938;11.396;2022-10-19T03:50:20;70.35;;;8.60;;
73296;SDS011;61524;50.938;11.396;2022-10-19T03:52:45;97.25;;;9.68;;
73296;SDS011;61524;50.938;11.396;2022-10-19T03:55:13;85.32;;;10.95;;
73296;SDS011;61524;50.938;11.396;2022-10-19T03:57:38;54.42;;;7.45;;
73296;SDS011;61524;50.938;11.396;2022-10-19T04:00:04;50.60;;;6.78;;
73296;SDS011;61524;50.938;11.396;2022-10-19T04:02:30;34.30;;;5.93;;
73296;SDS011;61524;50.938;11.396;2022-10-19T04:04:55;27.65;;;5.13;;
73296;SDS011;61524;50.938;11.396;2022-10-19T04:07:20;50.75;;;7.20;;
73296;SDS011;61524;50.938;11.396;2022-10-19T04:09:46;33.65;;;6.00;;
73296;SDS011;61524;50.938;11.396;2022-10-19T04:12:11;35.47;;;5.85;;
73296;SDS011;61524;50.938;11.396;2022-10-19T04:14:37;53.80;;;7.88;;
73296;SDS011;61524;50.938;11.396;2022-10-19T04:17:03;33.58;;;6.75;;
73296;SDS011;61524;50.938;11.396;2022-10-19T04:19:29;50.95;;;7.45;;
73296;SDS011;61524;50.938;11.396;2022-10-19T04:21:55;37.40;;;7.95;;
73296;SDS011;61524;50.938;11.396;2022-10-19T04:24:21;35.63;;;6.68;;
73296;SDS011;61524;50.938;11.396;2022-10-19T04:26:48;39.92;;;7.40;;
73296;SDS011;61524;50.938;11.396;2022-10-19T04:29:16;45.70;;;6.70;;
73296;SDS011;61524;50.938;11.396;2022-10-19T04:31:43;33.42;;;7.72;;
73296;SDS011;61524;50.938;11.396;2022-10-19T04:34:09;24.33;;;6.95;;
73296;SDS011;61524;50.938;11.396;2022-10-19T04:36:35;20.92;;;7.22;;
73296;SDS011;61524;50.938;11.396;2022-10-19T04:39:01;21.77;;;8.38;;
73296;SDS011;61524;50.938;11.396;2022-10-19T04:41:28;28.48;;;8.10;;
73296;SDS011;61524;50.938;11.396;2022-10-19T04:43:54;21.17;;;7.60;;
73296;SDS011;61524;50.938;11.396;2022-10-19T04:46:21;25.08;;;7.18;;
73296;SDS011;61524;50.938;11.396;2022-10-19T04:48:47;19.30;;;8.05;;
73296;SDS011;61524;50.938;11.396;2022-10-19T04:51:13;16.48;;;6.93;;
73296;SDS011;61524;50.938;11.396;2022-10-19T04:53:40;16.77;;;5.93;;
73296;SDS011;61524;50.938;11.396;2022-10-19T04:56:08;21.23;;;8.13;;
73296;SDS011;61524;50.938;11.396;2022-10-19T04:58:36;16.60;;;6.70;;
73296;SDS011;61524;50.938;11.396;2022-10-19T05:01:08;18.60;;;6.65;;
73296;SDS011;61524;50.938;11.396;2022-10-19T05:03:38;19.83;;;6.97;;
73296;SDS011;61524;50.938;11.396;2022-10-19T05:06:05;15.60;;;6.75;;
73296;SDS011;61524;50.938;11.396;2022-10-19T05:08:31;22.35;;;7.47;;
73296;SDS011;61524;50.938;11.396;2022-10-19T05:11:00;16.42;;;7.07;;
73296;SDS011;61524;50.938;11.396;2022-10-19T05:13:31;14.23;;;7.32;;
73296;SDS011;61524;50.938;11.396;2022-10-19T05:15:58;19.60;;;7.15;;
73296;SDS011;61524;50.938;11.396;2022-10-19T05:18:25;17.40;;;7.53;;
73296;SDS011;61524;50.938;11.396;2022-10-19T05:20:58;18.38;;;7.60;;
73296;SDS011;61524;50.938;11.396;2022-10-19T05:23:25;21.02;;;6.97;;
73296;SDS011;61524;50.938;11.396;2022-10-19T05:26:01;20.83;;;6.90;;
73296;SDS011;61524;50.938;11.396;2022-10-19T05:28:47;23.08;;;6.85;;
73296;SDS011;61524;50.938;11.396;2022-10-19T05:31:20;22.20;;;7.45;;
73296;SDS011;61524;50.938;11.396;2022-10-19T05:33:46;22.58;;;7.93;;
73296;SDS011;61524;50.938;11.396;2022-10-19T05:38:43;22.13;;;7.95;;
73296;SDS011;61524;50.938;11.396;2022-10-19T05:41:10;18.80;;;8.45;;
73296;SDS011;61524;50.938;11.396;2022-10-19T05:43:36;24.90;;;8.43;;
73296;SDS011;61524;50.938;11.396;2022-10-19T05:46:04;20.90;;;10.00;;
73296;SDS011;61524;50.938;11.396;2022-10-19T05:48:31;20.25;;;8.52;;
73296;SDS011;61524;50.938;11.396;2022-10-19T05:50:58;19.02;;;7.18;;
73296;SDS011;61524;50.938;11.396;2022-10-19T05:53:25;16.63;;;8.20;;
73296;SDS011;61524;50.938;11.396;2022-10-19T05:55:51;20.65;;;7.82;;
73296;SDS011;61524;50.938;11.396;2022-10-19T05:58:16;17.60;;;8.73;;
73296;SDS011;61524;50.938;11.396;2022-10-19T06:00:42;21.30;;;6.82;;
73296;SDS011;61524;50.938;11.396;2022-10-19T06:03:07;22.15;;;7.88;;
73296;SDS011;61524;50.938;11.396;2022-10-19T06:05:34;20.48;;;8.70;;
73296;SDS011;61524;50.938;11.396;2022-10-19T06:08:00;24.42;;;8.63;;
73296;SDS011;61524;50.938;11.396;2022-10-19T06:10:26;27.95;;;9.18;;
73296;SDS011;61524;50.938;11.396;2022-10-19T06:12:51;32.83;;;11.23;;
73296;SDS011;61524;50.938;11.396;2022-10-19T06:15:16;33.30;;;12.00;;
73296;SDS011;61524;50.938;11.396;2022-10-19T06:17:42;33.85;;;12.07;;
73296;SDS011;61524;50.938;11.396;2022-10-19T06:20:07;27.85;;;11.60;;
73296;SDS011;61524;50.938;11.396;2022-10-19T06:22:33;30.27;;;10.35;;
73296;SDS011;61524;50.938;11.396;2022-10-19T06:24:59;26.98;;;11.25;;
73296;SDS011;61524;50.938;11.396;2022-10-19T06:27:24;31.63;;;11.63;;
73296;SDS011;61524;50.938;11.396;2022-10-19T06:29:50;30.90;;;11.50;;
73296;SDS011;61524;50.938;11.396;2022-10-19T06:32:15;35.97;;;11.93;;
73296;SDS011;61524;50.938;11.396;2022-10-19T06:34:40;27.38;;;10.73;;
73296;SDS011;61524;50.938;11.396;2022-10-19T06:37:06;34.05;;;11.07;;
73296;SDS011;61524;50.938;11.396;2022-10-19T06:39:32;30.00;;;12.40;;
73296;SDS011;61524;50.938;11.396;2022-10-19T06:41:57;45.05;;;12.27;;
73296;SDS011;61524;50.938;11.396;2022-10-19T06:44:23;33.88;;;11.52;;
73296;SDS011;61524;50.938;11.396;2022-10-19T06:46:48;32.08;;;11.15;;
73296;SDS011;61524;50.938;11.396;2022-10-19T06:49:13;30.73;;;12.20;;
73296;SDS011;61524;50.938;11.396;2022-10-19T06:51:39;30.15;;;12.40;;
73296;SDS011;61524;50.938;11.396;2022-10-19T06:54:05;27.55;;;11.93;;
73296;SDS011;61524;50.938;11.396;2022-10-19T06:56:30;34.45;;;13.77;;
73296;SDS011;61524;50.938;11.396;2022-10-19T06:58:56;29.42;;;12.02;;
73296;SDS011;61524;50.938;11.396;2022-10-19T07:01:22;31.08;;;11.68;;
73296;SDS011;61524;50.938;11.396;2022-10-19T07:03:49;29.13;;;12.27;;
73296;SDS011;61524;50.938;11.396;2022-10-19T07:06:15;36.38;;;12.77;;
73296;SDS011;61524;50.938;11.396;2022-10-19T07:08:41;31.92;;;13.23;;
73296;SDS011;61524;50.938;11.396;2022-10-19T07:11:08;31.02;;;11.30;;
73296;SDS011;61524;50.938;11.396;2022-10-19T07:13:35;29.95;;;12.52;;
73296;SDS011;61524;50.938;11.396;2022-10-19T07:16:02;26.63;;;11.30;;
73296;SDS011;61524;50.938;11.396;2022-10-19T07:18:36;27.55;;;12.52;;
73296;SDS011;61524;50.938;11.396;2022-10-19T07:21:04;27.75;;;12.52;;
73296;SDS011;61524;50.938;11.396;2022-10-19T07:23:32;25.30;;;11.57;;
73296;SDS011;61524;50.938;11.396;2022-10-19T07:26:03;21.83;;;10.93;;
73296;SDS011;61524;50.938;11.396;2022-10-19T07:28:48;21.17;;;9.57;;
73296;SDS011;61524;50.938;11.396;2022-10-19T07:31:15;20.40;;;10.10;;
73296;SDS011;61524;50.938;11.396;2022-10-19T07:33:43;21.25;;;10.35;;
73296;SDS011;61524;50.938;11.396;2022-10-19T07:36:09;23.63;;;10.13;;
73296;SDS011;61524;50.938;11.396;2022-10-19T07:38:37;21.95;;;10.52;;
73296;SDS011;61524;50.938;11.396;2022-10-19T07:41:03;21.23;;;10.27;;
73296;SDS011;61524;50.938;11.396;2022-10-19T07:43:33;26.85;;;12.77;;
73296;SDS011;61524;50.938;11.396;2022-10-19T07:46:00;21.60;;;9.52;;
73296;SDS011;61524;50.938;11.396;2022-10-19T07:48:27;20.48;;;10.10;;
73296;SDS011;61524;50.938;11.396;2022-10-19T07:50:53;21.45;;;9.98;;
73296;SDS011;61524;50.938;11.396;2022-10-19T07:53:18;22.70;;;10.85;;
73296;SDS011;61524;50.938;11.396;2022-10-19T07:55:44;21.63;;;9.93;;
73296;SDS011;61524;50.938;11.396;2022-10-19T07:58:09;20.50;;;10.13;;
73296;SDS011;61524;50.938;11.396;2022-10-19T08:00:35;21.17;;;10.65;;
73296;SDS011;61524;50.938;11.396;2022-10-19T08:03:00;22.23;;;9.07;;
73296;SDS011;61524;50.938;11.396;2022-10-19T08:05:26;21.67;;;9.63;;
73296;SDS011;61524;50.938;11.396;2022-10-19T08:07:52;20.42;;;10.05;;
73296;SDS011;61524;50.938;11.396;2022-10-19T08:10:17;17.55;;;9.23;;
73296;SDS011;61524;50.938;11.396;2022-10-19T08:12:43;24.40;;;9.85;;
73296;SDS011;61524;50.938;11.396;2022-10-19T08:15:08;19.15;;;9.23;;
73296;SDS011;61524;50.938;11.396;2022-10-19T08:17:34;17.23;;;9.70;;
73296;SDS011;61524;50.938;11.396;2022-10-19T08:20:04;15.52;;;8.73;;
73296;SDS011;61524;50.938;11.396;2022-10-19T08:22:31;27.48;;;10.70;;
73296;SDS011;61524;50.938;11.396;2022-10-19T08:24:56;14.68;;;9.15;;
73296;SDS011;61524;50.938;11.396;2022-10-19T08:27:21;14.93;;;6.50;;
73296;SDS011;61524;50.938;11.396;2022-10-19T08:29:47;17.20;;;7.85;;
73296;SDS011;61524;50.938;11.396;2022-10-19T08:32:12;14.40;;;7.22;;
73296;SDS011;61524;50.938;11.396;2022-10-19T08:34:38;18.35;;;8.40;;
73296;SDS011;61524;50.938;11.396;2022-10-19T08:37:03;15.88;;;7.22;;
73296;SDS011;61524;50.938;11.396;2022-10-19T08:39:29;14.07;;;7.28;;
73296;SDS011;61524;50.938;11.396;2022-10-19T08:42:02;15.57;;;6.88;;
73296;SDS011;61524;50.938;11.396;2022-10-19T08:47:33;19.45;;;10.35;;
73296;SDS011;61524;50.938;11.396;2022-10-19T08:50:06;18.95;;;12.75;;
73296;SDS011;61524;50.938;11.396;2022-10-19T08:52:40;12.20;;;6.97;;
73296;SDS011;61524;50.938;11.396;2022-10-19T08:55:09;19.65;;;11.60;;
73296;SDS011;61524;50.938;11.396;2022-10-19T08:57:52;16.08;;;8.02;;
73296;SDS011;61524;50.938;11.396;2022-10-19T09:08:49;10.48;;;5.88;;
73296;SDS011;61524;50.938;11.396;2022-10-19T09:11:17;10.73;;;5.20;;
73296;SDS011;61524;50.938;11.396;2022-10-19T09:13:47;8.05;;;4.65;;
73296;SDS011;61524;50.938;11.396;2022-10-19T09:16:17;11.25;;;4.55;;
73296;SDS011;61524;50.938;11.396;2022-10-19T09:18:44;8.75;;;4.18;;
73296;SDS011;61524;50.938;11.396;2022-10-19T09:23:44;4.90;;;2.60;;
73296;SDS011;61524;50.938;11.396;2022-10-19T09:26:20;7.22;;;2.80;;
73296;SDS011;61524;50.938;11.396;2022-10-19T09:31:52;5.65;;;3.00;;
73296;SDS011;61524;50.938;11.396;2022-10-19T09:34:43;6.65;;;3.75;;
73296;SDS011;61524;50.938;11.396;2022-10-19T09:37:12;8.43;;;3.25;;
73296;SDS011;61524;50.938;11.396;2022-10-19T09:39:38;5.80;;;3.75;;
73296;SDS011;61524;50.938;11.396;2022-10-19T09:44:32;10.05;;;3.78;;
73296;SDS011;61524;50.938;11.396;2022-10-19T09:50:05;7.55;;;3.30;;
73296;SDS011;61524;50.938;11.396;2022-10-19T09:52:51;6.68;;;3.38;;
73296;SDS011;61524;50.938;11.396;2022-10-19T09:55:36;7.07;;;2.90;;
73296;SDS011;61524;50.938;11.396;2022-10-19T09:58:14;8.68;;;3.15;;
73296;SDS011;61524;50.938;11.396;2022-10-19T10:00:47;7.47;;;3.33;;
73296;SDS011;61524;50.938;11.396;2022-10-19T10:03:22;5.85;;;2.40;;
73296;SDS011;61524;50.938;11.396;2022-10-19T10:05:48;7.03;;;3.05;;
73296;SDS011;61524;50.938;11.396;2022-10-19T10:08:14;8.13;;;2.53;;
73296;SDS011;61524;50.938;11.396;2022-10-19T10:13:37;3.80;;;1.83;;
73296;SDS011;61524;50.938;11.396;2022-10-19T10:16:06;4.95;;;2.30;;
73296;SDS011;61524;50.938;11.396;2022-10-19T10:18:39;3.15;;;1.70;;
73296;SDS011;61524;50.938;11.396;2022-10-19T10:21:48;4.53;;;2.35;;
73296;SDS011;61524;50.938;11.396;2022-10-19T10:24:20;5.57;;;2.70;;
73296;SDS011;61524;50.938;11.396;2022-10-19T10:26:51;7.50;;;2.55;;
73296;SDS011;61524;50.938;11.396;2022-10-19T10:31:51;8.60;;;2.35;;
73296;SDS011;61524;50.938;11.396;2022-10-19T10:34:34;3.65;;;1.85;;
73296;SDS011;61524;50.938;11.396;2022-10-19T10:37:17;3.65;;;1.95;;
73296;SDS011;61524;50.938;11.396;2022-10-19T10:39:46;4.15;;;1.65;;
73296;SDS011;61524;50.938;11.396;2022-10-19T10:42:19;4.35;;;2.20;;
73296;SDS011;61524;50.938;11.396;2022-10-19T10:44:52;4.18;;;1.58;;
73296;SDS011;61524;50.938;11.396;2022-10-19T10:47:20;3.70;;;1.73;;
73296;SDS011;61524;50.938;11.396;2022-10-19T10:49:56;3.80;;;1.73;;
73296;SDS011;61524;50.938;11.396;2022-10-19T10:52:25;5.68;;;2.70;;
73296;SDS011;61524;50.938;11.396;2022-10-19T10:55:03;3.85;;;1.55;;
73296;SDS011;61524;50.938;11.396;2022-10-19T10:57:43;4.03;;;1.50;;
73296;SDS011;61524;50.938;11.396;2022-10-19T11:00:17;3.80;;;1.45;;
73296;SDS011;61524;50.938;11.396;2022-10-19T11:02:51;2.90;;;1.40;;
73296;SDS011;61524;50.938;11.396;2022-10-19T11:08:11;5.45;;;1.42;;
73296;SDS011;61524;50.938;11.396;2022-10-19T11:10:44;2.58;;;1.45;;
73296;SDS011;61524;50.938;11.396;2022-10-19T11:13:29;3.05;;;1.30;;
73296;SDS011;61524;50.938;11.396;2022-10-19T11:16:34;3.75;;;1.63;;
73296;SDS011;61524;50.938;11.396;2022-10-19T11:19:13;3.13;;;1.10;;
73296;SDS011;61524;50.938;11.396;2022-10-19T11:24:20;2.92;;;1.30;;
73296;SDS011;61524;50.938;11.396;2022-10-19T11:30:02;2.90;;;1.20;;
73296;SDS011;61524;50.938;11.396;2022-10-19T11:32:44;3.38;;;1.20;;
73296;SDS011;61524;50.938;11.396;2022-10-19T11:51:08;4.60;;;1.60;;
73296;SDS011;61524;50.938;11.396;2022-10-19T12:06:44;3.42;;;1.30;;
73296;SDS011;61524;50.938;11.396;2022-10-19T12:09:36;1.83;;;0.95;;
73296;SDS011;61524;50.938;11.396;2022-10-19T12:14:44;3.78;;;1.75;;
73296;SDS011;61524;50.938;11.396;2022-10-19T12:17:35;3.58;;;1.30;;
73296;SDS011;61524;50.938;11.396;2022-10-19T12:20:02;3.50;;;1.20;;
73296;SDS011;61524;50.938;11.396;2022-10-19T12:22:38;2.47;;;1.40;;
73296;SDS011;61524;50.938;11.396;2022-10-19T12:25:04;3.42;;;1.50;;
73296;SDS011;61524;50.938;11.396;2022-10-19T12:27:31;3.15;;;1.30;;
73296;SDS011;61524;50.938;11.396;2022-10-19T12:30:07;2.22;;;0.98;;
73296;SDS011;61524;50.938;11.396;2022-10-19T12:37:53;3.72;;;1.23;;
73296;SDS011;61524;50.938;11.396;2022-10-19T12:40:27;3.58;;;1.40;;
73296;SDS011;61524;50.938;11.396;2022-10-19T12:45:35;3.40;;;1.40;;
73296;SDS011;61524;50.938;11.396;2022-10-19T12:48:28;2.30;;;1.10;;
73296;SDS011;61524;50.938;11.396;2022-10-19T12:53:27;2.92;;;1.00;;
73296;SDS011;61524;50.938;11.396;2022-10-19T12:58:33;3.03;;;1.10;;
73296;SDS011;61524;50.938;11.396;2022-10-19T13:01:01;1.85;;;0.98;;
73296;SDS011;61524;50.938;11.396;2022-10-19T13:03:37;2.03;;;1.10;;
73296;SDS011;61524;50.938;11.396;2022-10-19T13:06:15;1.80;;;1.00;;
73296;SDS011;61524;50.938;11.396;2022-10-19T13:08:46;3.47;;;1.40;;
73296;SDS011;61524;50.938;11.396;2022-10-19T13:11:19;3.28;;;1.30;;
73296;SDS011;61524;50.938;11.396;2022-10-19T13:21:46;2.55;;;1.10;;
73296;SDS011;61524;50.938;11.396;2022-10-19T13:24:28;2.92;;;1.00;;
73296;SDS011;61524;50.938;11.396;2022-10-19T13:29:42;2.47;;;1.02;;
73296;SDS011;61524;50.938;11.396;2022-10-19T13:37:45;1.55;;;0.82;;
73296;SDS011;61524;50.938;11.396;2022-10-19T13:40:17;1.52;;;0.90;;
73296;SDS011;61524;50.938;11.396;2022-10-19T13:42:44;2.10;;;1.08;;
73296;SDS011;61524;50.938;11.396;2022-10-19T13:45:22;2.53;;;1.27;;
73296;SDS011;61524;50.938;11.396;2022-10-19T13:47:49;2.92;;;1.17;;
73296;SDS011;61524;50.938;11.396;2022-10-19T13:50:40;3.80;;;1.10;;
73296;SDS011;61524;50.938;11.396;2022-10-19T13:53:33;1.55;;;0.80;;
73296;SDS011;61524;50.938;11.396;2022-10-19T14:08:00;2.22;;;1.00;;
73296;SDS011;61524;50.938;11.396;2022-10-19T14:10:27;3.72;;;1.63;;
73296;SDS011;61524;50.938;11.396;2022-10-19T14:12:55;3.38;;;1.30;;
73296;SDS011;61524;50.938;11.396;2022-10-19T14:15:29;4.13;;;2.00;;
73296;SDS011;61524;50.938;11.396;2022-10-19T14:17:56;4.22;;;0.85;;
73296;SDS011;61524;50.938;11.396;2022-10-19T14:23:18;2.65;;;1.25;;
73296;SDS011;61524;50.938;11.396;2022-10-19T14:25:54;1.67;;;0.93;;
73296;SDS011;61524;50.938;11.396;2022-10-19T14:28:23;1.48;;;0.80;;
73296;SDS011;61524;50.938;11.396;2022-10-19T14:33:27;1.65;;;0.93;;
73296;SDS011;61524;50.938;11.396;2022-10-19T14:35:54;2.63;;;0.90;;
73296;SDS011;61524;50.938;11.396;2022-10-19T14:38:25;3.85;;;1.50;;
73296;SDS011;61524;50.938;11.396;2022-10-19T14:40:56;3.15;;;0.93;;
73296;SDS011;61524;50.938;11.396;2022-10-19T14:48:32;4.38;;;1.00;;
73296;SDS011;61524;50.938;11.396;2022-10-19T14:51:21;2.60;;;1.10;;
73296;SDS011;61524;50.938;11.396;2022-10-19T14:54:04;3.22;;;1.10;;
73296;SDS011;61524;50.938;11.396;2022-10-19T14:56:34;3.17;;;0.90;;
73296;SDS011;61524;50.938;11.396;2022-10-19T14:59:18;4.00;;;1.00;;
73296;SDS011;61524;50.938;11.396;2022-10-19T15:01:55;2.05;;;1.10;;
73296;SDS011;61524;50.938;11.396;2022-10-19T15:04:27;2.60;;;1.00;;
73296;SDS011;61524;50.938;11.396;2022-10-19T15:06:55;3.95;;;1.25;;
73296;SDS011;61524;50.938;11.396;2022-10-19T15:09:24;1.13;;;0.70;;
73296;SDS011;61524;50.938;11.396;2022-10-19T15:11:52;5.70;;;1.35;;
73296;SDS011;61524;50.938;11.396;2022-10-19T15:14:20;2.42;;;0.95;;
73296;SDS011;61524;50.938;11.396;2022-10-19T15:16:51;2.70;;;1.00;;
73296;SDS011;61524;50.938;11.396;2022-10-19T15:24:33;2.83;;;1.00;;
73296;SDS011;61524;50.938;11.396;2022-10-19T15:27:18;2.50;;;0.80;;
73296;SDS011;61524;50.938;11.396;2022-10-19T15:29:55;3.33;;;0.93;;
73296;SDS011;61524;50.938;11.396;2022-10-19T15:32:24;3.28;;;1.10;;
73296;SDS011;61524;50.938;11.396;2022-10-19T15:34:53;2.15;;;0.90;;
73296;SDS011;61524;50.938;11.396;2022-10-19T15:37:20;3.10;;;1.20;;
73296;SDS011;61524;50.938;11.396;2022-10-19T15:39:47;2.38;;;1.10;;
73296;SDS011;61524;50.938;11.396;2022-10-19T15:42:31;5.05;;;1.00;;
73296;SDS011;61524;50.938;11.396;2022-10-19T15:44:57;3.13;;;1.02;;
73296;SDS011;61524;50.938;11.396;2022-10-19T15:47:24;3.33;;;1.20;;
73296;SDS011;61524;50.938;11.396;2022-10-19T15:52:20;2.70;;;1.05;;
73296;SDS011;61524;50.938;11.396;2022-10-19T15:54:52;2.25;;;1.02;;
73296;SDS011;61524;50.938;11.396;2022-10-19T15:57:20;1.92;;;1.00;;
73296;SDS011;61524;50.938;11.396;2022-10-19T15:59:46;2.08;;;0.90;;
73296;SDS011;61524;50.938;11.396;2022-10-19T16:02:12;2.83;;;1.10;;
73296;SDS011;61524;50.938;11.396;2022-10-19T16:04:38;2.33;;;1.10;;
73296;SDS011;61524;50.938;11.396;2022-10-19T16:07:04;1.85;;;1.00;;
73296;SDS011;61524;50.938;11.396;2022-10-19T16:09:29;2.28;;;1.08;;
73296;SDS011;61524;50.938;11.396;2022-10-19T16:11:55;1.83;;;0.80;;
73296;SDS011;61524;50.938;11.396;2022-10-19T16:14:21;3.45;;;0.90;;
73296;SDS011;61524;50.938;11.396;2022-10-19T16:16:47;2.13;;;1.00;;
73296;SDS011;61524;50.938;11.396;2022-10-19T16:19:14;3.40;;;1.02;;
73296;SDS011;61524;50.938;11.396;2022-10-19T16:21:40;2.92;;;1.20;;
73296;SDS011;61524;50.938;11.396;2022-10-19T16:24:05;1.70;;;0.98;;
73296;SDS011;61524;50.938;11.396;2022-10-19T16:26:31;2.33;;;1.48;;
73296;SDS011;61524;50.938;11.396;2022-10-19T16:28:57;3.00;;;1.20;;
73296;SDS011;61524;50.938;11.396;2022-10-19T16:31:23;4.45;;;1.20;;
73296;SDS011;61524;50.938;11.396;2022-10-19T16:33:49;4.53;;;1.48;;
73296;SDS011;61524;50.938;11.396;2022-10-19T16:36:15;2.35;;;1.20;;
73296;SDS011;61524;50.938;11.396;2022-10-19T16:38:44;3.00;;;1.05;;
73296;SDS011;61524;50.938;11.396;2022-10-19T16:41:09;4.30;;;1.55;;
73296;SDS011;61524;50.938;11.396;2022-10-19T16:43:37;2.70;;;1.15;;
73296;SDS011;61524;50.938;11.396;2022-10-19T16:46:03;6.65;;;2.10;;
73296;SDS011;61524;50.938;11.396;2022-10-19T16:48:29;4.47;;;1.55;;
73296;SDS011;61524;50.938;11.396;2022-10-19T16:53:29;5.25;;;2.20;;
73296;SDS011;61524;50.938;11.396;2022-10-19T16:55:55;6.03;;;2.40;;
73296;SDS011;61524;50.938;11.396;2022-10-19T16:58:28;6.15;;;2.53;;
73296;SDS011;61524;50.938;11.396;2022-10-19T17:00:54;6.05;;;3.15;;
73296;SDS011;61524;50.938;11.396;2022-10-19T17:03:20;4.38;;;3.65;;
73296;SDS011;61524;50.938;11.396;2022-10-19T17:05:46;4.80;;;3.05;;
73296;SDS011;61524;50.938;11.396;2022-10-19T17:08:11;5.85;;;4.10;;
73296;SDS011;61524;50.938;11.396;2022-10-19T17:10:37;5.90;;;4.68;;
73296;SDS011;61524;50.938;11.396;2022-10-19T17:13:02;7.20;;;4.88;;
73296;SDS011;61524;50.938;11.396;2022-10-19T17:15:28;7.57;;;4.25;;
73296;SDS011;61524;50.938;11.396;2022-10-19T17:17:53;6.43;;;4.32;;
73296;SDS011;61524;50.938;11.396;2022-10-19T17:20:19;5.45;;;4.35;;
73296;SDS011;61524;50.938;11.396;2022-10-19T17:22:45;6.93;;;4.82;;
73296;SDS011;61524;50.938;11.396;2022-10-19T17:25:10;8.73;;;4.88;;